Time;durP1;ratioP1;P1;durP2;ratioP2;P2;SDS_P1;SDS_P2;PMS_P1;PMS_P2;Temp;Humidity;BMP_temperature;BMP_pressure;BME280_temperature;BME280_humidity;BME280_pressure;Samples;Min_cycle;Max_cycle;Signal;HPM_P1;HPM_P2
2023/05/12 00:00:58;;;;;;;0.10;0.10;;;13.70;99.90;;;;;;5074683;28;20294;-83
2023/05/12 00:03:23;;;;;;;0.10;0.10;;;13.70;99.90;;;;;;5075717;28;20194;-83
2023/05/12 00:05:49;;;;;;;0.10;0.10;;;13.80;99.90;;;;;;5073967;28;20190;-83
2023/05/12 00:08:14;;;;;;;0.10;0.10;;;13.80;99.90;;;;;;5075835;28;20191;-83
2023/05/12 00:10:40;;;;;;;0.10;0.10;;;13.80;99.90;;;;;;5074901;28;20181;-82
2023/05/12 00:13:07;;;;;;;0.10;0.10;;;13.70;99.90;;;;;;5074474;28;20214;-83
2023/05/12 00:15:33;;;;;;;0.10;0.10;;;13.80;99.90;;;;;;5074083;28;20188;-83
2023/05/12 00:17:58;;;;;;;0.10;0.10;;;13.70;99.90;;;;;;5074042;28;20664;-83
2023/05/12 00:20:24;;;;;;;0.10;0.10;;;13.80;99.90;;;;;;5075446;28;20419;-83
2023/05/12 00:22:49;;;;;;;0.10;0.10;;;13.80;99.90;;;;;;5075547;28;20267;-83
2023/05/12 00:25:15;;;;;;;0.10;0.10;;;13.80;99.90;;;;;;5075852;28;20214;-83
2023/05/12 00:27:40;;;;;;;0.10;0.10;;;13.70;99.90;;;;;;5072235;28;20197;-83
2023/05/12 00:30:06;;;;;;;0.10;0.10;;;13.80;99.90;;;;;;5075721;28;20187;-82
2023/05/12 00:32:32;;;;;;;0.10;0.10;;;13.80;99.90;;;;;;5075037;28;20200;-83
2023/05/12 00:34:58;;;;;;;0.10;0.10;;;13.80;99.90;;;;;;5075156;28;20197;-83
2023/05/12 00:37:23;;;;;;;0.10;0.10;;;13.80;99.90;;;;;;5075582;28;20180;-82
2023/05/12 00:39:49;;;;;;;0.10;0.10;;;13.80;99.90;;;;;;5076162;28;20174;-82
2023/05/12 00:42:15;;;;;;;0.10;0.10;;;13.80;99.90;;;;;;5072593;28;20201;-82
2023/05/12 00:44:40;;;;;;;0.10;0.10;;;13.70;99.90;;;;;;5074864;28;20211;-83
2023/05/12 00:47:06;;;;;;;0.10;0.10;;;13.80;99.90;;;;;;5074255;28;20655;-82
2023/05/12 00:49:32;;;;;;;0.10;0.10;;;13.70;99.90;;;;;;5074960;28;20278;-83
2023/05/12 00:51:58;;;;;;;0.10;0.10;;;13.70;99.90;;;;;;5072490;28;20214;-82
2023/05/12 00:54:25;;;;;;;0.10;0.10;;;13.70;99.90;;;;;;5074452;28;20214;-82
2023/05/12 00:56:51;;;;;;;0.10;0.10;;;13.80;99.90;;;;;;5072440;28;20535;-82
2023/05/12 00:59:16;;;;;;;0.10;0.10;;;13.80;99.90;;;;;;5070337;28;20185;-83
2023/05/12 01:01:42;;;;;;;0.10;0.10;;;13.80;99.90;;;;;;5071856;28;20213;-83
2023/05/12 01:04:08;;;;;;;0.10;0.10;;;13.80;99.90;;;;;;5071423;28;20194;-82
2023/05/12 01:06:42;;;;;;;0.10;0.10;;;13.80;99.90;;;;;;5072514;28;20210;-83
2023/05/12 01:09:08;;;;;;;0.10;0.10;;;13.80;99.90;;;;;;5073231;28;20620;-82
2023/05/12 01:11:33;;;;;;;0.10;0.10;;;13.90;99.90;;;;;;5072181;28;20226;-83
2023/05/12 01:13:59;;;;;;;0.10;0.10;;;13.90;99.90;;;;;;5069256;28;20219;-82
2023/05/12 01:16:30;;;;;;;0.10;0.10;;;13.90;99.90;;;;;;5073866;28;20190;-82
2023/05/12 01:18:57;;;;;;;0.10;0.10;;;13.90;99.90;;;;;;5073463;28;20634;-82
2023/05/12 01:21:23;;;;;;;0.10;0.10;;;13.90;99.90;;;;;;5070268;28;20212;-82
2023/05/12 01:23:55;;;;;;;0.10;0.10;;;13.90;99.90;;;;;;5071596;28;20186;-83
2023/05/12 01:26:21;;;;;;;0.10;0.10;;;13.90;99.90;;;;;;5072967;28;20175;-82
2023/05/12 01:28:48;;;;;;;0.10;0.10;;;13.90;99.90;;;;;;5070010;28;20187;-83
2023/05/12 01:31:14;;;;;;;0.10;0.10;;;13.90;99.90;;;;;;5072056;28;20202;-82
2023/05/12 01:33:41;;;;;;;0.10;0.10;;;13.90;99.90;;;;;;5070698;28;20212;-82
2023/05/12 01:36:06;;;;;;;0.10;0.10;;;13.90;99.90;;;;;;5073817;28;20593;-82
2023/05/12 01:38:32;;;;;;;0.10;0.10;;;13.90;99.90;;;;;;5071216;28;20183;-83
2023/05/12 01:40:57;;;;;;;0.10;0.10;;;13.90;99.90;;;;;;5070173;28;20183;-83
2023/05/12 01:43:23;;;;;;;0.10;0.10;;;13.90;99.90;;;;;;5071619;28;20551;-82
2023/05/12 01:45:48;;;;;;;0.10;0.10;;;13.90;99.90;;;;;;5071947;28;20223;-83
2023/05/12 01:48:14;;;;;;;0.10;0.10;;;13.90;99.90;;;;;;5071827;28;20187;-82
2023/05/12 01:50:41;;;;;;;0.10;0.10;;;13.90;99.90;;;;;;5075421;28;20664;-83
2023/05/12 01:53:09;;;;;;;0.10;0.10;;;13.90;99.90;;;;;;5072962;28;20300;-83
2023/05/12 01:55:34;;;;;;;0.10;0.10;;;13.80;99.90;;;;;;5072285;28;20186;-83
2023/05/12 01:58:00;;;;;;;0.10;0.10;;;13.90;99.90;;;;;;5069602;28;20180;-82
2023/05/12 02:00:26;;;;;;;0.10;0.10;;;13.90;99.90;;;;;;5073068;28;20630;-82
2023/05/12 02:02:51;;;;;;;0.10;0.10;;;13.90;99.90;;;;;;5071407;28;20673;-83
2023/05/12 02:05:17;;;;;;;0.10;0.10;;;13.90;99.90;;;;;;5071103;28;20192;-83
2023/05/12 02:07:43;;;;;;;0.10;0.10;;;13.80;99.90;;;;;;5073682;28;20245;-82
2023/05/12 02:10:08;;;;;;;0.10;0.10;;;13.90;99.90;;;;;;5075129;28;20219;-83
2023/05/12 02:12:34;;;;;;;0.10;0.10;;;13.90;99.90;;;;;;5074604;28;20238;-82
2023/05/12 02:14:59;;;;;;;0.10;0.10;;;13.90;99.90;;;;;;5073979;28;20231;-83
2023/05/12 02:17:27;;;;;;;0.10;0.10;;;13.90;99.90;;;;;;5075820;28;20660;-82
2023/05/12 02:19:52;;;;;;;0.10;0.10;;;13.90;99.90;;;;;;5074620;28;20661;-82
2023/05/12 02:22:18;;;;;;;0.10;0.10;;;13.90;99.90;;;;;;5074971;28;20213;-83
2023/05/12 02:24:43;;;;;;;0.10;0.10;;;13.90;99.90;;;;;;5078611;28;20852;-83
2023/05/12 02:27:08;;;;;;;0.10;0.10;;;13.80;99.90;;;;;;5075907;28;20191;-83
2023/05/12 02:29:35;;;;;;;0.10;0.10;;;13.70;99.90;;;;;;5075528;28;20191;-82
2023/05/12 02:32:00;;;;;;;0.10;0.10;;;13.60;99.90;;;;;;5073252;28;20238;-83
2023/05/12 02:34:26;;;;;;;0.10;0.10;;;13.60;99.90;;;;;;5075726;28;21236;-83
2023/05/12 02:36:51;;;;;;;0.10;0.10;;;13.60;99.90;;;;;;5074146;28;20190;-82
2023/05/12 02:39:17;;;;;;;0.10;0.10;;;13.60;99.90;;;;;;5074795;28;20292;-83
2023/05/12 02:41:42;;;;;;;0.10;0.10;;;13.40;99.90;;;;;;5072948;28;20212;-81
2023/05/12 02:44:08;;;;;;;0.10;0.10;;;13.20;99.90;;;;;;5074311;28;20183;-83
2023/05/12 02:46:33;;;;;;;0.10;0.10;;;13.10;99.90;;;;;;5075312;28;20688;-82
2023/05/12 02:48:59;;;;;;;0.10;0.10;;;13.00;99.90;;;;;;5076401;28;20191;-82
2023/05/12 02:51:24;;;;;;;0.10;0.10;;;12.90;99.90;;;;;;5075401;28;20240;-83
2023/05/12 02:53:50;;;;;;;0.10;0.10;;;12.90;99.90;;;;;;5074856;28;20933;-82
2023/05/12 02:56:16;;;;;;;0.10;0.10;;;12.90;99.90;;;;;;5072660;28;20198;-82
2023/05/12 02:58:42;;;;;;;0.10;0.10;;;12.90;99.90;;;;;;5074795;28;20198;-83
2023/05/12 03:01:07;;;;;;;0.10;0.10;;;13.00;99.90;;;;;;5072541;28;20264;-82
2023/05/12 03:03:33;;;;;;;0.10;0.10;;;12.90;99.90;;;;;;5075234;28;20257;-82
2023/05/12 03:05:58;;;;;;;0.10;0.10;;;12.80;99.90;;;;;;5074463;28;20273;-82
2023/05/12 03:08:24;;;;;;;0.10;0.10;;;12.80;99.90;;;;;;5078203;28;20243;-82
2023/05/12 03:10:50;;;;;;;0.10;0.10;;;12.60;99.90;;;;;;5076705;28;20187;-82
2023/05/12 03:13:15;;;;;;;0.10;0.10;;;12.60;99.90;;;;;;5071600;28;20260;-83
2023/05/12 03:15:41;;;;;;;0.10;0.10;;;12.80;99.90;;;;;;5075130;28;20182;-82
2023/05/12 03:18:06;;;;;;;0.10;0.10;;;12.90;99.90;;;;;;5075348;28;20269;-82
2023/05/12 03:20:32;;;;;;;0.10;0.10;;;12.80;99.90;;;;;;5074287;28;20193;-82
2023/05/12 03:22:57;;;;;;;0.10;0.10;;;12.80;99.90;;;;;;5075271;28;20678;-82
2023/05/12 03:25:23;;;;;;;0.10;0.10;;;12.70;99.90;;;;;;5076276;28;20190;-82
2023/05/12 03:27:48;;;;;;;0.10;0.10;;;12.60;99.90;;;;;;5074603;28;20642;-82
2023/05/12 03:30:14;;;;;;;0.10;0.10;;;12.60;99.90;;;;;;5073115;28;20647;-82
2023/05/12 03:32:39;;;;;;;3.40;2.10;;;12.60;99.90;;;;;;5074298;28;20208;-81
2023/05/12 03:35:06;;;;;;;0.10;0.10;;;12.50;99.90;;;;;;5074228;28;20227;-82
2023/05/12 03:37:31;;;;;;;0.10;0.10;;;12.40;99.90;;;;;;5072471;28;20263;-82
2023/05/12 03:39:57;;;;;;;0.10;0.10;;;12.30;99.90;;;;;;5074853;28;20211;-82
2023/05/12 03:42:23;;;;;;;0.10;0.10;;;12.30;99.90;;;;;;5073403;28;20193;-81
2023/05/12 03:44:52;;;;;;;0.10;0.10;;;12.30;99.90;;;;;;5071795;28;22232;-82
2023/05/12 03:47:17;;;;;;;0.10;0.10;;;12.50;99.90;;;;;;5074525;28;20268;-82
2023/05/12 03:49:43;;;;;;;0.10;0.10;;;12.40;99.90;;;;;;5072039;28;20461;-82
2023/05/12 03:52:08;;;;;;;0.10;0.10;;;12.50;99.90;;;;;;5073497;28;20204;-83
2023/05/12 03:54:34;;;;;;;0.10;0.10;;;12.50;99.90;;;;;;5073302;28;20304;-83
2023/05/12 03:57:00;;;;;;;0.10;0.10;;;12.50;99.90;;;;;;5075037;28;20169;-82
2023/05/12 03:59:25;;;;;;;0.10;0.10;;;12.50;99.90;;;;;;5072038;28;20782;-82
2023/05/12 04:01:52;;;;;;;0.10;0.10;;;12.50;99.90;;;;;;5071868;28;20193;-82
2023/05/12 04:04:18;;;;;;;0.10;0.10;;;12.30;99.90;;;;;;5073113;28;20213;-82
2023/05/12 04:06:43;;;;;;;0.10;0.10;;;12.30;99.90;;;;;;5071888;28;20184;-82
2023/05/12 04:09:09;;;;;;;0.10;0.10;;;12.40;99.90;;;;;;5072859;28;20275;-81
2023/05/12 04:11:35;;;;;;;0.10;0.10;;;12.30;99.90;;;;;;5073228;28;20681;-83
2023/05/12 04:14:01;;;;;;;0.10;0.10;;;12.30;99.90;;;;;;5074940;28;20208;-82
2023/05/12 04:16:27;;;;;;;0.10;0.10;;;12.30;99.90;;;;;;5073231;28;20169;-82
2023/05/12 04:18:52;;;;;;;0.10;0.10;;;12.20;99.90;;;;;;5073131;28;20203;-83
2023/05/12 04:21:18;;;;;;;0.10;0.10;;;12.30;99.90;;;;;;5073939;28;20662;-82
2023/05/12 04:23:43;;;;;;;0.10;0.10;;;12.30;99.90;;;;;;5075779;28;20188;-83
2023/05/12 04:26:09;;;;;;;0.10;0.10;;;12.20;99.90;;;;;;5074205;28;20192;-82
2023/05/12 04:28:35;;;;;;;0.10;0.10;;;12.10;99.90;;;;;;5070421;28;20561;-82
2023/05/12 04:31:03;;;;;;;0.07;0.07;;;12.20;99.90;;;;;;5071138;28;20191;-82
2023/05/12 04:33:29;;;;;;;0.10;0.10;;;12.20;99.90;;;;;;5071730;28;20180;-82
2023/05/12 04:35:56;;;;;;;0.10;0.10;;;12.30;99.90;;;;;;5072943;28;21381;-82
2023/05/12 04:38:21;;;;;;;0.10;0.10;;;12.20;99.90;;;;;;5070848;28;20185;-82
2023/05/12 04:40:47;;;;;;;0.10;0.10;;;12.10;99.90;;;;;;5070091;28;20173;-82
2023/05/12 04:43:12;;;;;;;0.10;0.10;;;12.20;99.90;;;;;;5072751;28;20881;-82
2023/05/12 04:45:38;;;;;;;0.10;0.10;;;12.20;99.90;;;;;;5072817;28;20205;-81
2023/05/12 04:48:04;;;;;;;0.10;0.10;;;12.20;99.90;;;;;;5071707;28;20174;-82
2023/05/12 04:50:30;;;;;;;0.10;0.10;;;12.10;99.90;;;;;;5076111;28;20794;-82
2023/05/12 04:52:55;;;;;;;0.10;0.10;;;12.10;99.90;;;;;;5076332;28;20227;-81
2023/05/12 04:55:21;;;;;;;0.10;0.10;;;12.20;99.90;;;;;;5075313;28;20216;-81
2023/05/12 04:57:47;;;;;;;0.10;0.10;;;12.30;99.90;;;;;;5072696;28;20249;-81
2023/05/12 05:00:13;;;;;;;0.10;0.10;;;12.10;99.90;;;;;;5071789;28;20184;-81
2023/05/12 05:02:40;;;;;;;0.10;0.10;;;12.20;99.90;;;;;;5072790;28;21389;-81
2023/05/12 05:05:06;;;;;;;0.10;0.10;;;12.20;99.90;;;;;;5072072;28;20663;-81
2023/05/12 05:07:31;;;;;;;0.10;0.10;;;12.20;99.90;;;;;;5072841;28;20187;-81
2023/05/12 05:09:57;;;;;;;0.10;0.10;;;12.10;99.90;;;;;;5075101;28;20209;-81
2023/05/12 05:12:23;;;;;;;0.10;0.10;;;12.10;99.90;;;;;;5070932;28;21069;-82
2023/05/12 05:14:48;;;;;;;0.10;0.10;;;12.20;99.90;;;;;;5071440;28;20257;-85
2023/05/12 05:17:14;;;;;;;0.10;0.10;;;12.10;99.90;;;;;;5069287;28;20184;-85
2023/05/12 05:19:40;;;;;;;0.10;0.10;;;12.30;99.90;;;;;;5070490;28;22028;-85
2023/05/12 05:22:05;;;;;;;0.10;0.10;;;12.30;99.90;;;;;;5069818;28;20261;-84
2023/05/12 05:24:31;;;;;;;0.10;0.10;;;12.40;99.90;;;;;;5071392;28;20947;-84
2023/05/12 05:26:56;;;;;;;0.10;0.10;;;12.50;99.90;;;;;;5071825;28;20193;-81
2023/05/12 05:29:22;;;;;;;0.10;0.10;;;12.60;99.90;;;;;;5070419;28;21109;-82
2023/05/12 05:31:47;;;;;;;0.10;0.10;;;12.70;99.90;;;;;;5071511;28;20208;-82
2023/05/12 05:34:14;;;;;;;0.10;0.10;;;12.70;99.90;;;;;;5069145;28;20330;-82
2023/05/12 05:36:40;;;;;;;0.10;0.10;;;12.80;99.90;;;;;;5070992;28;20181;-82
2023/05/12 05:39:06;;;;;;;0.10;0.10;;;12.80;99.90;;;;;;5073676;28;20606;-82
2023/05/12 05:41:31;;;;;;;0.10;0.10;;;12.90;99.90;;;;;;5073118;28;20205;-81
2023/05/12 05:43:57;;;;;;;0.10;0.10;;;12.80;99.90;;;;;;5072882;28;20195;-81
2023/05/12 05:46:22;;;;;;;0.10;0.10;;;12.80;99.90;;;;;;5075818;28;20317;-82
2023/05/12 05:48:48;;;;;;;0.10;0.10;;;12.80;99.90;;;;;;5074455;28;20554;-82
2023/05/12 05:51:14;;;;;;;0.10;0.10;;;12.90;99.90;;;;;;5075467;28;20204;-82
2023/05/12 05:53:39;;;;;;;0.10;0.10;;;12.80;99.90;;;;;;5073803;28;20315;-82
2023/05/12 05:56:05;;;;;;;0.10;0.10;;;13.10;99.90;;;;;;5071077;28;20919;-82
2023/05/12 05:58:30;;;;;;;0.10;0.10;;;12.80;99.90;;;;;;5069394;28;20196;-82
2023/05/12 06:00:56;;;;;;;0.00;0.00;;;12.90;99.90;;;;;;5070266;28;20214;-82
2023/05/12 06:03:22;;;;;;;0.10;0.10;;;12.80;99.90;;;;;;5072233;28;20223;-81
2023/05/12 06:05:48;;;;;;;0.00;0.00;;;12.70;99.90;;;;;;5070729;28;20191;-81
2023/05/12 06:08:14;;;;;;;0.10;0.10;;;12.70;99.90;;;;;;5070590;28;20184;-82
2023/05/12 06:10:40;;;;;;;0.10;0.10;;;12.60;99.90;;;;;;5069225;28;20189;-82
2023/05/12 06:13:05;;;;;;;0.10;0.10;;;12.60;99.90;;;;;;5068443;28;20201;-82
2023/05/12 06:15:31;;;;;;;0.10;0.10;;;12.50;99.90;;;;;;5067753;28;20212;-82
2023/05/12 06:17:57;;;;;;;0.10;0.10;;;12.50;99.90;;;;;;5071065;28;20173;-82
2023/05/12 06:20:23;;;;;;;0.10;0.10;;;12.50;99.90;;;;;;5067094;28;20202;-82
2023/05/12 06:22:49;;;;;;;0.10;0.10;;;12.50;99.90;;;;;;5070785;28;20252;-82
2023/05/12 06:25:15;;;;;;;0.10;0.10;;;12.70;99.90;;;;;;5069378;28;20213;-81
2023/05/12 06:27:40;;;;;;;0.10;0.10;;;12.60;99.90;;;;;;5069147;28;20726;-82
2023/05/12 06:30:06;;;;;;;0.10;0.10;;;12.60;99.90;;;;;;5067222;28;20184;-82
2023/05/12 06:32:32;;;;;;;0.10;0.10;;;12.60;99.90;;;;;;5069293;28;20281;-81
2023/05/12 06:34:58;;;;;;;0.10;0.10;;;12.60;99.90;;;;;;5069777;28;20630;-83
2023/05/12 06:37:23;;;;;;;0.10;0.10;;;12.70;99.90;;;;;;5071013;28;20565;-81
2023/05/12 06:39:49;;;;;;;0.10;0.10;;;12.60;99.90;;;;;;5070295;28;20239;-81
2023/05/12 06:42:14;;;;;;;0.10;0.10;;;12.70;99.90;;;;;;5069990;28;20637;-81
2023/05/12 06:44:40;;;;;;;0.10;0.10;;;12.70;99.90;;;;;;5068049;28;20622;-81
2023/05/12 06:47:06;;;;;;;0.10;0.10;;;12.70;99.90;;;;;;5074217;28;20185;-81
2023/05/12 06:49:34;;;;;;;0.10;0.10;;;12.80;99.90;;;;;;5074436;28;20636;-81
2023/05/12 06:52:00;;;;;;;0.10;0.10;;;12.80;99.90;;;;;;5072785;28;20196;-81
2023/05/12 06:54:25;;;;;;;0.20;0.20;;;12.80;99.90;;;;;;5075656;28;20273;-82
2023/05/12 06:56:51;;;;;;;0.40;0.40;;;12.70;99.90;;;;;;5069092;28;20271;-80
2023/05/12 06:59:16;;;;;;;0.10;0.10;;;12.70;99.90;;;;;;5071669;28;20226;-85
2023/05/12 07:01:42;;;;;;;0.10;0.10;;;12.70;99.90;;;;;;5067862;28;21835;-81
2023/05/12 07:04:07;;;;;;;0.10;0.10;;;12.80;99.90;;;;;;5070504;28;20205;-82
2023/05/12 07:06:33;;;;;;;0.10;0.10;;;12.80;99.90;;;;;;5074441;28;20254;-80
2023/05/12 07:08:59;;;;;;;0.10;0.10;;;12.80;99.90;;;;;;5069283;28;20188;-81
2023/05/12 07:11:24;;;;;;;0.00;0.00;;;13.00;99.90;;;;;;5070726;28;20208;-82
2023/05/12 07:13:50;;;;;;;0.10;0.10;;;12.90;99.90;;;;;;5071586;28;20247;-81
2023/05/12 07:16:17;;;;;;;0.00;0.00;;;13.10;99.90;;;;;;5071859;28;20191;-82
2023/05/12 07:18:42;;;;;;;0.03;0.03;;;13.20;99.90;;;;;;5072383;28;20218;-81
2023/05/12 07:21:09;;;;;;;0.10;0.10;;;13.30;99.90;;;;;;5066931;28;20576;-84
2023/05/12 07:23:35;;;;;;;0.10;0.10;;;13.50;99.90;;;;;;5072651;28;20221;-84
2023/05/12 07:26:02;;;;;;;0.10;0.10;;;13.50;99.90;;;;;;5070130;28;20190;-83
2023/05/12 07:28:35;;;;;;;0.10;0.10;;;13.60;99.90;;;;;;5072137;28;20184;-83
2023/05/12 07:31:02;;;;;;;0.10;0.10;;;13.60;99.90;;;;;;5071565;28;20195;-83
2023/05/12 07:33:28;;;;;;;0.10;0.10;;;13.90;99.90;;;;;;5074952;28;20265;-83
2023/05/12 07:35:53;;;;;;;0.10;0.10;;;14.20;99.90;;;;;;5072238;28;20190;-83
2023/05/12 07:38:19;;;;;;;0.10;0.10;;;14.10;99.90;;;;;;5075521;28;20659;-83
2023/05/12 07:40:45;;;;;;;0.07;0.07;;;14.40;99.90;;;;;;5072662;28;20207;-83
2023/05/12 07:43:10;;;;;;;0.03;0.03;;;14.40;99.90;;;;;;5072716;28;20254;-83
2023/05/12 07:45:36;;;;;;;0.10;0.10;;;14.20;99.90;;;;;;5075089;28;20196;-83
2023/05/12 07:48:02;;;;;;;0.10;0.10;;;14.50;99.90;;;;;;5073950;28;20192;-83
2023/05/12 07:50:27;;;;;;;0.10;0.10;;;14.20;99.90;;;;;;5073817;28;20206;-83
2023/05/12 07:52:53;;;;;;;0.10;0.10;;;14.10;99.90;;;;;;5076819;28;20314;-83
2023/05/12 07:55:20;;;;;;;0.10;0.10;;;14.00;99.90;;;;;;5071773;28;20216;-81
2023/05/12 07:57:46;;;;;;;0.10;0.10;;;13.90;99.90;;;;;;5077585;28;20188;-81
2023/05/12 08:00:13;;;;;;;0.10;0.10;;;13.90;99.90;;;;;;5080225;28;20199;-81
2023/05/12 08:02:40;;;;;;;0.10;0.10;;;13.90;99.90;;;;;;5074912;28;20263;-81
2023/05/12 08:05:07;;;;;;;0.10;0.10;;;14.20;99.90;;;;;;5070653;28;20684;-82
2023/05/12 08:07:33;;;;;;;0.10;0.10;;;13.90;99.90;;;;;;5074817;28;20194;-81
2023/05/12 08:09:58;;;;;;;0.10;0.10;;;13.90;99.90;;;;;;5071681;28;20603;-81
2023/05/12 08:12:24;;;;;;;0.10;0.10;;;13.90;99.90;;;;;;5075741;28;20244;-81
2023/05/12 08:14:49;;;;;;;0.10;0.10;;;13.70;99.90;;;;;;5074031;28;20285;-82
2023/05/12 08:17:15;;;;;;;0.10;0.10;;;13.70;99.90;;;;;;5073256;28;20190;-81
2023/05/12 08:19:40;;;;;;;0.10;0.10;;;13.70;99.90;;;;;;5072213;28;20181;-82
2023/05/12 08:22:06;;;;;;;0.10;0.10;;;13.80;99.90;;;;;;5070501;28;20695;-82
2023/05/12 08:24:31;;;;;;;0.10;0.10;;;13.90;99.90;;;;;;5074797;28;21241;-81
2023/05/12 08:26:57;;;;;;;0.10;0.10;;;13.90;99.90;;;;;;5072572;28;20193;-83
2023/05/12 08:29:22;;;;;;;0.10;0.10;;;13.90;99.90;;;;;;5073389;28;20198;-81
2023/05/12 08:31:48;;;;;;;0.10;0.10;;;14.00;99.90;;;;;;5069514;28;20229;-81
2023/05/12 08:34:13;;;;;;;0.10;0.10;;;13.90;99.90;;;;;;5071506;28;20206;-82
2023/05/12 08:36:39;;;;;;;0.10;0.10;;;13.90;99.90;;;;;;5072954;28;20183;-81
2023/05/12 08:39:05;;;;;;;0.10;0.10;;;13.90;99.90;;;;;;5071970;28;20187;-80
2023/05/12 08:41:41;;;;;;;0.10;0.10;;;13.90;99.90;;;;;;5068060;28;20255;-81
2023/05/12 08:44:08;;;;;;;0.10;0.10;;;13.90;99.90;;;;;;5070302;28;20201;-81
2023/05/12 08:46:34;;;;;;;0.10;0.10;;;14.00;99.90;;;;;;5072629;28;20193;-82
2023/05/12 08:49:01;;;;;;;0.10;0.10;;;14.10;99.90;;;;;;5072137;28;20183;-81
2023/05/12 08:51:30;;;;;;;0.10;0.10;;;14.20;99.90;;;;;;5071252;28;20212;-81
2023/05/12 08:53:56;;;;;;;0.10;0.10;;;14.50;99.90;;;;;;5076147;28;20356;-82
2023/05/12 08:56:23;;;;;;;0.07;0.07;;;14.70;99.90;;;;;;5072337;28;20278;-81
2023/05/12 08:58:48;;;;;;;0.10;0.10;;;14.80;99.90;;;;;;5078231;28;20179;-81
2023/05/12 09:01:15;;;;;;;0.10;0.10;;;14.90;99.90;;;;;;5076801;28;20719;-81
2023/05/12 09:03:41;;;;;;;0.10;0.10;;;14.90;99.90;;;;;;5075000;28;20195;-81
2023/05/12 09:06:09;;;;;;;0.10;0.10;;;15.20;99.90;;;;;;5079334;28;20192;-81
2023/05/12 09:08:36;;;;;;;0.10;0.10;;;15.30;99.90;;;;;;5072868;28;20214;-81
2023/05/12 09:11:02;;;;;;;0.10;0.10;;;15.20;99.90;;;;;;5068378;28;20225;-82
2023/05/12 09:13:48;;;;;;;0.10;0.10;;;15.20;99.90;;;;;;5067655;28;20916;-81
2023/05/12 09:16:19;;;;;;;0.10;0.10;;;15.30;99.90;;;;;;5075745;28;20176;-80
2023/05/12 09:18:51;;;;;;;0.10;0.10;;;15.40;99.90;;;;;;5070678;28;20672;-83
2023/05/12 09:21:17;;;;;;;0.10;0.10;;;15.40;99.90;;;;;;5087299;28;20417;-83
2023/05/12 09:23:56;;;;;;;0.10;0.10;;;15.40;99.90;;;;;;5072407;28;20305;-82
2023/05/12 09:26:23;;;;;;;0.10;0.10;;;15.90;99.90;;;;;;5067140;28;20292;-81
2023/05/12 09:28:49;;;;;;;0.10;0.10;;;15.90;99.90;;;;;;5068052;28;20200;-81
2023/05/12 09:31:21;;;;;;;0.10;0.10;;;16.00;99.90;;;;;;5073026;28;20208;-81
2023/05/12 09:33:47;;;;;;;0.10;0.10;;;16.20;99.90;;;;;;5074848;28;20208;-81
2023/05/12 09:36:17;;;;;;;0.10;0.10;;;16.00;99.90;;;;;;5067224;28;20188;-81
2023/05/12 09:38:42;;;;;;;0.10;0.10;;;15.90;99.90;;;;;;5072213;28;20195;-81
2023/05/12 09:41:08;;;;;;;0.10;0.10;;;16.10;99.90;;;;;;5073241;28;20658;-81
2023/05/12 09:43:34;;;;;;;0.10;0.10;;;16.00;99.90;;;;;;5073019;28;20599;-81
2023/05/12 09:46:06;;;;;;;0.10;0.10;;;16.50;99.90;;;;;;5071873;28;20195;-81
2023/05/12 09:48:32;;;;;;;0.10;0.10;;;16.40;99.90;;;;;;5072583;28;20279;-81
2023/05/12 09:50:57;;;;;;;0.10;0.10;;;16.40;99.90;;;;;;5071196;28;20182;-81
2023/05/12 09:53:23;;;;;;;0.10;0.10;;;16.30;99.90;;;;;;5069714;28;20587;-81
2023/05/12 09:55:49;;;;;;;0.10;0.10;;;17.00;99.90;;;;;;5069522;28;20208;-81
2023/05/12 09:58:17;;;;;;;0.10;0.10;;;16.60;99.90;;;;;;5068474;28;20184;-81
2023/05/12 10:00:43;;;;;;;0.10;0.10;;;16.20;99.90;;;;;;5069386;28;20193;-81
2023/05/12 10:03:14;;;;;;;0.10;0.10;;;16.40;99.90;;;;;;5069865;28;20216;-81
2023/05/12 10:05:48;;;;;;;0.10;0.10;;;17.00;99.90;;;;;;5070519;28;20193;-81
2023/05/12 10:08:21;;;;;;;0.10;0.10;;;17.10;99.90;;;;;;5074795;28;21088;-81
2023/05/12 10:10:49;;;;;;;0.10;0.10;;;16.50;99.90;;;;;;5077179;28;20697;-81
2023/05/12 10:13:15;;;;;;;0.10;0.10;;;16.10;99.90;;;;;;5082010;28;20254;-81
2023/05/12 10:15:41;;;;;;;0.10;0.10;;;16.10;99.90;;;;;;5077090;28;20212;-83
2023/05/12 10:18:08;;;;;;;0.10;0.10;;;16.10;99.90;;;;;;5070844;28;20181;-81
2023/05/12 10:20:34;;;;;;;0.10;0.10;;;16.40;99.90;;;;;;5072547;28;20237;-81
2023/05/12 10:23:01;;;;;;;0.10;0.10;;;16.40;99.90;;;;;;5075552;28;20577;-81
2023/05/12 10:25:27;;;;;;;0.10;0.10;;;16.10;99.90;;;;;;5070370;28;20180;-81
2023/05/12 10:27:55;;;;;;;0.10;0.10;;;16.00;99.90;;;;;;5072442;28;20220;-81
2023/05/12 10:30:22;;;;;;;0.10;0.10;;;15.70;99.90;;;;;;5075770;28;20185;-83
2023/05/12 10:32:47;;;;;;;0.10;0.10;;;15.50;99.90;;;;;;5076434;28;20689;-82
2023/05/12 10:35:14;;;;;;;0.10;0.10;;;15.40;99.90;;;;;;5076029;28;20254;-83
2023/05/12 10:37:41;;;;;;;0.10;0.10;;;15.30;99.90;;;;;;5074747;28;20260;-83
2023/05/12 10:40:09;;;;;;;0.10;0.10;;;15.50;99.90;;;;;;5072816;28;20697;-82
2023/05/12 10:42:41;;;;;;;0.10;0.10;;;15.60;99.90;;;;;;5077791;28;20200;-82
2023/05/12 10:45:16;;;;;;;0.10;0.10;;;15.60;99.90;;;;;;5075029;28;20594;-82
2023/05/12 10:47:43;;;;;;;0.10;0.10;;;15.60;99.90;;;;;;5093761;28;20184;-83
2023/05/12 10:50:12;;;;;;;0.10;0.10;;;15.60;99.90;;;;;;5082299;28;20191;-84
2023/05/12 10:52:38;;;;;;;0.10;0.10;;;15.60;99.90;;;;;;5077745;28;20345;-83
2023/05/12 10:55:09;;;;;;;0.10;0.10;;;15.40;99.90;;;;;;5078707;28;20203;-82
2023/05/12 10:57:47;;;;;;;0.10;0.10;;;15.30;99.90;;;;;;5074132;28;20184;-84
2023/05/12 11:00:13;;;;;;;0.10;0.10;;;15.10;99.90;;;;;;5074721;28;20190;-83
2023/05/12 11:02:48;;;;;;;0.10;0.10;;;15.10;99.90;;;;;;5075710;28;20204;-83
2023/05/12 11:05:14;;;;;;;0.10;0.10;;;14.90;99.90;;;;;;5073602;28;20188;-83
2023/05/12 11:07:46;;;;;;;0.10;0.10;;;14.90;99.90;;;;;;5072991;28;20184;-82
2023/05/12 11:10:12;;;;;;;0.10;0.10;;;14.90;99.90;;;;;;5070583;28;20191;-82
2023/05/12 11:12:37;;;;;;;0.10;0.10;;;14.80;99.90;;;;;;5072662;28;20207;-82
2023/05/12 11:15:04;;;;;;;0.10;0.10;;;14.90;99.90;;;;;;5071787;28;20211;-82
2023/05/12 11:17:30;;;;;;;0.10;0.10;;;14.90;99.90;;;;;;5075050;28;20185;-82
2023/05/12 11:19:57;;;;;;;0.10;0.10;;;15.20;99.90;;;;;;5075492;28;20271;-81
2023/05/12 11:22:23;;;;;;;0.10;0.10;;;15.50;99.90;;;;;;5074886;28;20210;-81
2023/05/12 11:24:50;;;;;;;0.10;0.10;;;15.90;99.90;;;;;;5078011;28;20201;-82
2023/05/12 11:27:18;;;;;;;0.10;0.10;;;16.30;99.90;;;;;;5072181;28;20211;-82
2023/05/12 11:29:53;;;;;;;0.10;0.10;;;16.80;99.90;;;;;;5075022;28;20199;-82
2023/05/12 11:32:19;;;;;;;0.10;0.10;;;16.80;99.90;;;;;;5069276;28;20203;-83
2023/05/12 11:34:46;;;;;;;0.10;0.10;;;16.80;99.90;;;;;;5075349;28;20570;-81
2023/05/12 11:37:11;;;;;;;0.10;0.10;;;16.80;99.90;;;;;;5075720;28;20658;-84
2023/05/12 11:39:40;;;;;;;0.10;0.10;;;16.80;99.90;;;;;;5073506;28;20195;-82
2023/05/12 11:42:09;;;;;;;0.10;0.10;;;16.10;99.90;;;;;;5074050;28;20569;-82
2023/05/12 11:44:35;;;;;;;0.10;0.10;;;15.50;99.90;;;;;;5075506;28;20268;-82
2023/05/12 11:47:10;;;;;;;0.10;0.10;;;15.20;99.90;;;;;;5073562;28;20188;-83
2023/05/12 11:49:46;;;;;;;0.10;0.10;;;14.70;99.90;;;;;;5076060;28;20295;-82
2023/05/12 11:52:11;;;;;;;0.10;0.10;;;14.70;99.90;;;;;;5078774;28;21068;-82
2023/05/12 11:54:37;;;;;;;0.10;0.10;;;14.90;99.90;;;;;;5075742;28;20303;-82
2023/05/12 11:57:03;;;;;;;0.10;0.10;;;15.20;99.90;;;;;;5075177;28;20192;-83
2023/05/12 11:59:29;;;;;;;0.10;0.10;;;15.10;99.90;;;;;;5073930;28;20268;-84
2023/05/12 12:01:56;;;;;;;0.53;0.53;;;15.10;99.90;;;;;;5076479;28;20209;-82
2023/05/12 12:04:36;;;;;;;0.10;0.10;;;14.50;99.90;;;;;;5073348;28;20200;-82
2023/05/12 12:07:07;;;;;;;0.10;0.10;;;14.70;99.90;;;;;;5077674;28;20210;-82
2023/05/12 12:09:39;;;;;;;0.10;0.10;;;14.80;99.90;;;;;;5076143;28;20187;-81
2023/05/12 12:12:06;;;;;;;0.10;0.10;;;14.80;99.90;;;;;;5080002;28;20326;-81
2023/05/12 12:14:33;;;;;;;0.10;0.10;;;15.20;99.90;;;;;;5074032;28;20700;-82
2023/05/12 12:17:00;;;;;;;0.10;0.10;;;15.60;99.90;;;;;;5075443;28;20212;-82
2023/05/12 12:19:26;;;;;;;0.10;0.10;;;16.10;99.90;;;;;;5074974;28;20238;-81
2023/05/12 12:22:01;;;;;;;0.10;0.10;;;16.20;99.90;;;;;;5075843;28;20666;-81
2023/05/12 12:24:27;;;;;;;0.10;0.10;;;16.20;99.90;;;;;;5077896;28;20180;-81
2023/05/12 12:26:52;;;;;;;0.10;0.10;;;16.40;99.90;;;;;;5077238;28;20622;-81
2023/05/12 12:29:18;;;;;;;0.10;0.10;;;16.70;99.90;;;;;;5075883;28;20272;-82
2023/05/12 12:31:43;;;;;;;0.10;0.10;;;16.50;99.90;;;;;;5074699;28;20217;-81
2023/05/12 12:34:09;;;;;;;0.10;0.10;;;16.50;99.90;;;;;;5076923;28;20200;-81
2023/05/12 12:36:35;;;;;;;0.10;0.10;;;16.30;99.90;;;;;;5076473;28;20210;-81
2023/05/12 12:39:01;;;;;;;0.10;0.10;;;15.90;99.90;;;;;;5077409;28;20271;-81
2023/05/12 12:41:27;;;;;;;0.10;0.10;;;16.10;99.90;;;;;;5074519;28;21010;-82
2023/05/12 12:43:52;;;;;;;0.10;0.10;;;15.90;99.90;;;;;;5076943;28;20191;-81